createdAt,value
2022-12-08T00:01:46.738Z,96867.91
2022-12-08T00:04:17.419Z,96870.66
2022-12-08T00:07:02.983Z,96868.28
2022-12-08T00:09:39.051Z,96877.13
2022-12-08T00:12:11.830Z,96877.34
2022-12-08T00:14:44.268Z,96882.69
2022-12-08T00:17:16.638Z,96882.09
2022-12-08T00:19:47.570Z,96890.13
2022-12-08T00:22:20.803Z,96898.06
2022-12-08T00:24:51.322Z,96900.03
2022-12-08T00:27:21.943Z,96898.91
2022-12-08T00:29:52.443Z,96901.81
2022-12-08T00:32:23.057Z,96900.78
2022-12-08T00:34:53.870Z,96901.56
2022-12-08T00:37:27.131Z,96900.66
2022-12-08T00:39:57.799Z,96897.25
2022-12-08T00:42:28.388Z,96889.91
2022-12-08T00:44:58.856Z,96884.56
2022-12-08T00:47:29.544Z,96879.59
2022-12-08T00:49:59.972Z,96891.13
2022-12-08T00:52:33.303Z,96897.59
2022-12-08T00:55:04.101Z,96902.78
2022-12-08T00:57:35.250Z,96905.34
2022-12-08T01:00:06.335Z,96910.28
2022-12-08T01:02:38.102Z,96907.13
2022-12-08T01:05:09.606Z,96892.53
2022-12-08T01:07:42.979Z,96907.56
2022-12-08T01:10:13.636Z,96904.06
2022-12-08T01:12:44.474Z,96903.16
2022-12-08T01:15:15.720Z,96902.84
2022-12-08T01:17:46.420Z,96905.28
2022-12-08T01:20:16.989Z,96910.47
2022-12-08T01:22:50.278Z,96898.69
2022-12-08T01:25:20.981Z,96906.38
2022-12-08T01:27:51.545Z,96907.56
2022-12-08T01:30:22.248Z,96910.00
2022-12-08T01:32:52.856Z,96914.13
2022-12-08T01:35:23.407Z,96910.81
2022-12-08T01:37:56.664Z,96911.28
2022-12-08T01:40:27.160Z,96910.41
2022-12-08T01:42:57.910Z,96918.06
2022-12-08T01:45:31.294Z,96922.31
2022-12-08T01:48:06.391Z,96915.34
2022-12-08T01:50:38.502Z,96919.91
2022-12-08T01:53:15.268Z,96916.09
2022-12-08T01:55:50.205Z,96914.00
2022-12-08T01:58:26.299Z,96897.91
2022-12-08T02:00:57.147Z,96894.72
2022-12-08T02:03:32.756Z,96893.22
2022-12-08T02:06:02.925Z,96892.09
2022-12-08T02:08:37.959Z,96887.47
2022-12-08T02:11:09.044Z,96881.75
2022-12-08T02:13:39.842Z,96875.28
2022-12-08T02:16:18.227Z,96876.66
2022-12-08T02:19:29.854Z,96879.28
2022-12-08T02:21:59.712Z,96880.63
2022-12-08T02:24:40.242Z,96878.78
2022-12-08T02:27:35.871Z,96870.81
2022-12-08T02:30:27.166Z,96878.03
2022-12-08T02:33:34.554Z,96869.78
2022-12-08T02:36:16.110Z,96881.50
2022-12-08T02:38:54.912Z,96887.97
2022-12-08T02:41:35.830Z,96895.41
2022-12-08T02:44:14.184Z,96888.44
2022-12-08T02:46:50.638Z,96887.59
2022-12-08T02:49:21.290Z,96880.09
2022-12-08T02:51:54.534Z,96874.66
2022-12-08T02:54:25.062Z,96880.66
2022-12-08T02:57:19.394Z,96887.50
2022-12-08T03:00:05.537Z,96889.66
2022-12-08T03:02:49.559Z,96882.28
2022-12-08T03:05:40.944Z,96884.69
2022-12-08T03:08:23.357Z,96884.47
2022-12-08T03:11:01.061Z,96878.72
2022-12-08T03:13:39.426Z,96889.06
2022-12-08T03:16:13.060Z,96888.84
2022-12-08T03:18:48.661Z,96890.72
2022-12-08T03:21:20.672Z,96883.72
2022-12-08T03:23:57.154Z,96875.22
2022-12-08T03:26:33.930Z,96878.03
2022-12-08T03:29:04.704Z,96881.72
2022-12-08T03:31:38.786Z,96889.78
2022-12-08T03:34:11.011Z,96884.84
2022-12-08T03:36:41.565Z,96886.81
2022-12-08T03:39:15.028Z,96888.22
2022-12-08T03:41:45.686Z,96901.81
2022-12-08T03:44:16.914Z,96895.59
2022-12-08T03:46:47.446Z,96904.75
2022-12-08T03:49:18.029Z,96906.97
2022-12-08T03:51:48.701Z,96892.75
2022-12-08T03:54:22.029Z,96895.25
2022-12-08T03:56:52.620Z,96881.41
2022-12-08T03:59:23.399Z,96894.59
2022-12-08T04:01:53.926Z,96895.16
2022-12-08T04:04:24.584Z,96898.47
2022-12-08T04:06:55.108Z,96900.84
2022-12-08T04:09:28.478Z,96909.44
2022-12-08T04:11:58.936Z,96914.44
2022-12-08T04:14:29.583Z,96911.69
2022-12-08T04:17:00.167Z,96915.84
2022-12-08T04:19:31.038Z,96916.69
2022-12-08T04:22:01.519Z,96916.56
2022-12-08T04:24:34.927Z,96922.75
2022-12-08T04:27:05.455Z,96926.09
2022-12-08T04:29:36.118Z,96928.75
2022-12-08T04:32:07.102Z,96944.50
2022-12-08T04:34:37.786Z,96942.69
2022-12-08T04:37:08.330Z,96942.69
2022-12-08T04:39:41.610Z,96939.13
2022-12-08T04:42:12.164Z,96940.06
2022-12-08T04:44:42.959Z,96947.13
2022-12-08T04:47:13.754Z,96951.44
2022-12-08T04:49:44.775Z,96942.84
2022-12-08T04:52:15.249Z,96945.47
2022-12-08T04:54:48.499Z,96935.78
2022-12-08T04:57:19.161Z,96942.84
2022-12-08T04:59:49.754Z,96941.88
2022-12-08T05:02:20.576Z,96945.47
2022-12-08T05:04:51.275Z,96951.97
2022-12-08T05:07:21.980Z,96949.59
2022-12-08T05:09:55.305Z,96941.25
2022-12-08T05:12:25.814Z,96952.03
2022-12-08T05:14:56.459Z,96955.88
2022-12-08T05:17:27.037Z,96956.84
2022-12-08T05:19:57.605Z,96959.72
2022-12-08T05:22:28.158Z,96958.91
2022-12-08T05:25:01.469Z,96960.00
2022-12-08T05:27:33.594Z,96946.16
2022-12-08T05:30:04.387Z,96951.66
2022-12-08T05:32:35.377Z,96958.84
2022-12-08T05:35:06.108Z,96961.59
2022-12-08T05:37:36.997Z,96956.75
2022-12-08T05:40:11.602Z,96956.16
2022-12-08T05:42:42.073Z,96954.63
2022-12-08T05:45:13.869Z,96951.28
2022-12-08T05:47:44.466Z,96952.22
2022-12-08T05:50:15.268Z,96954.84
2022-12-08T05:52:45.847Z,96937.72
2022-12-08T05:55:19.240Z,96947.94
2022-12-08T05:57:49.769Z,96949.47
2022-12-08T06:00:21.720Z,96951.28
2022-12-08T06:02:52.414Z,96960.97
2022-12-08T06:05:23.200Z,96948.91
2022-12-08T06:07:53.829Z,96935.91
2022-12-08T06:10:26.986Z,96942.69
2022-12-08T06:12:57.681Z,96935.78
2022-12-08T06:15:28.415Z,96950.84
2022-12-08T06:17:58.901Z,96943.91
2022-12-08T06:20:29.497Z,96945.97
2022-12-08T06:23:00.501Z,96951.22
2022-12-08T06:25:33.820Z,96956.59
2022-12-08T06:28:04.349Z,96954.22
2022-12-08T06:30:35.721Z,96964.03
2022-12-08T06:33:06.350Z,96974.78
2022-12-08T06:35:37.212Z,96971.00
2022-12-08T06:38:07.767Z,96970.28
2022-12-08T06:40:40.994Z,96974.84
2022-12-08T06:43:11.496Z,96970.28
2022-12-08T06:45:44.564Z,96958.44
2022-12-08T06:48:15.092Z,96962.25
2022-12-08T06:50:45.712Z,96962.41
2022-12-08T06:53:16.759Z,96960.13
2022-12-08T06:56:01.842Z,96958.53
2022-12-08T06:58:32.475Z,96967.41
2022-12-08T07:01:08.544Z,96971.78
2022-12-08T07:03:39.967Z,96956.63
2022-12-08T07:06:11.064Z,96960.72
2022-12-08T07:08:41.660Z,96951.06
2022-12-08T07:11:19.764Z,96971.75
2022-12-08T07:13:52.120Z,96975.53
2022-12-08T07:16:23.108Z,96983.91
2022-12-08T07:18:53.844Z,96981.13
2022-12-08T07:21:24.587Z,96982.81
2022-12-08T07:23:57.942Z,96983.69
2022-12-08T07:26:31.474Z,96981.22
2022-12-08T07:29:03.348Z,96977.06
2022-12-08T07:31:34.178Z,96968.63
2022-12-08T07:34:04.806Z,96976.66
2022-12-08T07:36:35.574Z,96971.41
2022-12-08T07:39:08.978Z,96973.47
2022-12-08T07:41:42.278Z,96969.59
2022-12-08T07:44:14.273Z,96968.69
2022-12-08T07:46:45.267Z,96971.88
2022-12-08T07:49:15.825Z,96970.84
2022-12-08T07:51:46.563Z,96972.72
2022-12-08T07:54:17.259Z,96974.75
2022-12-08T07:56:50.537Z,96974.25
2022-12-08T07:59:21.589Z,96981.00
2022-12-08T08:02:11.702Z,96971.69
2022-12-08T08:04:43.257Z,96972.25
2022-12-08T08:07:14.291Z,96970.88
2022-12-08T08:09:45.965Z,96965.22
2022-12-08T08:12:34.700Z,96956.41
2022-12-08T08:15:07.685Z,96959.47
2022-12-08T08:17:39.888Z,96957.41
2022-12-08T08:20:12.232Z,96947.25
2022-12-08T08:22:43.103Z,96943.38
2022-12-08T08:25:13.708Z,96943.63
2022-12-08T08:27:47.055Z,96938.22
2022-12-08T08:30:21.034Z,96946.22
2022-12-08T08:32:52.788Z,96941.44
2022-12-08T08:35:23.392Z,96936.81
2022-12-08T08:37:54.349Z,96940.97
2022-12-08T08:40:25.188Z,96937.31
2022-12-08T08:42:58.693Z,96936.31
2022-12-08T08:45:29.458Z,96925.22
2022-12-08T08:48:00.214Z,96919.63
2022-12-08T08:50:37.200Z,96919.78
2022-12-08T08:53:08.432Z,96918.63
2022-12-08T08:55:41.870Z,96911.03
2022-12-08T08:58:15.278Z,96918.50
2022-12-08T09:00:46.204Z,96913.72
2022-12-08T09:03:17.026Z,96913.22
2022-12-08T09:05:47.893Z,96914.56
2022-12-08T09:08:19.039Z,96908.69
2022-12-08T09:10:49.637Z,96904.56
2022-12-08T09:13:22.886Z,96901.09
2022-12-08T09:15:53.867Z,96896.63
2022-12-08T09:18:25.017Z,96893.00
2022-12-08T09:20:57.106Z,96887.06
2022-12-08T09:23:33.701Z,96875.13
2022-12-08T09:26:07.427Z,96878.94
2022-12-08T09:28:40.809Z,96875.13
2022-12-08T09:31:11.317Z,96858.25
2022-12-08T09:33:41.882Z,96855.59
2022-12-08T09:36:13.503Z,96852.25
2022-12-08T09:38:44.657Z,96861.38
2022-12-08T09:41:19.973Z,96852.91
2022-12-08T09:44:07.291Z,96851.75
2022-12-08T09:46:38.872Z,96851.44
2022-12-08T09:49:18.250Z,96848.28
2022-12-08T09:51:49.119Z,96842.97
2022-12-08T09:54:24.534Z,96851.25
2022-12-08T09:56:59.939Z,96840.66
2022-12-08T09:59:35.541Z,96837.00
2022-12-08T10:02:06.681Z,96838.31
2022-12-08T10:04:39.596Z,96838.00
2022-12-08T10:07:19.481Z,96820.91
2022-12-08T10:09:58.194Z,96823.03
2022-12-08T10:12:34.492Z,96816.72
2022-12-08T10:15:21.707Z,96819.72
2022-12-08T10:17:54.940Z,96817.53
2022-12-08T10:20:27.992Z,96823.31
2022-12-08T10:23:09.987Z,96819.78
2022-12-08T10:25:45.186Z,96820.13
2022-12-08T10:28:16.369Z,96817.97
2022-12-08T10:30:50.007Z,96822.25
2022-12-08T10:33:24.109Z,96809.31
2022-12-08T10:35:59.549Z,96806.34
2022-12-08T10:38:33.803Z,96798.94
2022-12-08T10:41:09.449Z,96808.06
2022-12-08T10:43:45.176Z,96808.41
2022-12-08T10:46:21.901Z,96805.59
2022-12-08T10:48:55.129Z,96808.75
2022-12-08T10:51:28.683Z,96806.63
2022-12-08T10:53:59.885Z,96808.44
2022-12-08T10:56:32.160Z,96811.94
2022-12-08T10:59:16.845Z,96807.97
2022-12-08T11:01:54.210Z,96816.91
2022-12-08T11:04:27.066Z,96813.13
2022-12-08T11:06:57.821Z,96807.50
2022-12-08T11:09:39.631Z,96815.13
2022-12-08T11:12:12.220Z,96809.47
2022-12-08T11:14:52.585Z,96803.84
2022-12-08T11:17:32.023Z,96801.03
2022-12-08T11:20:06.786Z,96805.88
2022-12-08T11:22:42.182Z,96810.53
2022-12-08T11:25:22.758Z,96809.84
2022-12-08T11:27:56.303Z,96814.16
2022-12-08T11:30:28.947Z,96814.47
2022-12-08T11:33:06.677Z,96808.84
2022-12-08T11:35:41.117Z,96808.19
2022-12-08T11:38:23.629Z,96804.38
2022-12-08T11:40:58.628Z,96808.19
2022-12-08T11:43:39.359Z,96811.66
2022-12-08T11:46:16.492Z,96801.41
2022-12-08T11:48:54.987Z,96807.19
2022-12-08T11:51:34.334Z,96800.09
2022-12-08T11:54:18.714Z,96810.19
2022-12-08T11:56:51.997Z,96804.72
2022-12-08T11:59:29.581Z,96803.88
2022-12-08T12:02:01.131Z,96802.38
2022-12-08T12:04:41.258Z,96808.63
2022-12-08T12:07:47.756Z,96811.44
2022-12-08T12:10:41.834Z,96804.47
2022-12-08T12:13:34.821Z,96803.13
2022-12-08T12:16:44.517Z,96803.09
2022-12-08T12:19:18.423Z,96813.00
2022-12-08T12:21:55.192Z,96819.47
2022-12-08T12:24:35.413Z,96826.75
2022-12-08T12:27:18.352Z,96827.22
2022-12-08T12:29:55.913Z,96833.16
2022-12-08T12:32:27.877Z,96829.47
2022-12-08T12:35:00.583Z,96828.47
2022-12-08T12:37:42.903Z,96832.72
2022-12-08T12:40:22.631Z,96827.22
2022-12-08T12:43:27.158Z,96828.38
2022-12-08T12:46:35.955Z,96828.69
2022-12-08T12:49:36.723Z,96831.31
2022-12-08T12:52:28.202Z,96829.75
2022-12-08T12:55:27.364Z,96833.16
2022-12-08T12:58:00.339Z,96822.56
2022-12-08T13:00:31.426Z,96830.16
2022-12-08T13:03:03.350Z,96830.16
2022-12-08T13:05:50.980Z,96832.13
2022-12-08T13:08:26.523Z,96830.78
2022-12-08T13:11:05.710Z,96831.44
2022-12-08T13:13:36.553Z,96827.16
2022-12-08T13:16:19.445Z,96821.56
2022-12-08T13:18:52.717Z,96823.22
2022-12-08T13:21:26.566Z,96818.78
2022-12-08T13:24:20.204Z,96824.56
2022-12-08T13:27:14.030Z,96817.63
2022-12-08T13:29:44.798Z,96806.41
2022-12-08T13:33:22.719Z,96800.81
2022-12-08T13:35:50.214Z,96812.75
2022-12-08T13:38:24.033Z,96821.34
2022-12-08T13:40:56.661Z,96822.03
2022-12-08T13:43:55.519Z,96820.03
2022-12-08T13:58:27.532Z,96812.19
2022-12-08T14:01:05.843Z,96809.22
2022-12-08T14:04:12.447Z,96800.31
2022-12-08T14:06:40.541Z,96808.91
2022-12-08T14:09:16.291Z,96807.25
2022-12-08T14:11:49.076Z,96808.41
2022-12-08T14:14:54.011Z,96806.91
2022-12-08T14:17:18.275Z,96803.59
2022-12-08T14:19:57.876Z,96796.63
2022-12-08T14:22:35.227Z,96795.78
2022-12-08T14:25:07.522Z,96789.53
2022-12-08T14:27:40.332Z,96782.75
2022-12-08T14:30:22.328Z,96787.72
2022-12-08T14:32:58.996Z,96783.41
2022-12-08T14:35:31.871Z,96777.28
2022-12-08T14:38:04.662Z,96791.34
2022-12-08T14:40:38.101Z,96779.13
2022-12-08T14:43:19.642Z,96788.03
2022-12-08T14:45:55.686Z,96754.38
2022-12-08T14:48:31.278Z,96788.50
2022-12-08T14:51:07.617Z,96786.16
2022-12-08T14:53:43.330Z,96778.41
2022-12-08T14:56:23.766Z,96778.03
2022-12-08T14:59:05.651Z,96779.03
2022-12-08T15:01:37.561Z,96774.06
2022-12-08T15:04:19.124Z,96784.97
2022-12-08T15:06:54.584Z,96770.69
2022-12-08T15:09:34.264Z,96784.28
2022-12-08T15:12:06.293Z,96783.75
2022-12-08T15:14:39.466Z,96791.81
2022-12-08T15:17:33.108Z,96791.84
2022-12-08T15:20:08.600Z,96791.25
2022-12-08T15:22:39.360Z,96794.06
2022-12-08T15:25:15.960Z,96783.88
2022-12-08T15:27:50.422Z,96799.06
2022-12-08T15:30:22.237Z,96800.22
2022-12-08T15:32:53.074Z,96809.13
2022-12-08T15:35:26.319Z,96806.03
2022-12-08T15:37:56.906Z,96807.91
2022-12-08T15:40:27.555Z,96809.84
2022-12-08T15:42:58.639Z,96801.53
2022-12-08T15:45:34.001Z,96797.25
2022-12-08T15:48:04.628Z,96792.66
2022-12-08T15:50:37.928Z,96795.72
2022-12-08T15:53:08.576Z,96794.50
2022-12-08T15:55:39.826Z,96789.00
2022-12-08T15:58:52.276Z,96791.75
2022-12-08T16:01:01.558Z,96779.84
2022-12-08T16:04:19.822Z,96778.69
2022-12-08T16:09:24.489Z,96790.38
2022-12-08T16:12:09.615Z,96785.44
2022-12-08T16:17:35.077Z,96792.81
2022-12-08T16:20:06.554Z,96788.31
2022-12-08T16:23:03.640Z,96783.69
2022-12-08T16:25:52.695Z,96788.72
2022-12-08T16:28:53.009Z,96782.47
2022-12-08T16:31:20.054Z,96780.81
2022-12-08T16:33:53.363Z,96783.72
2022-12-08T16:36:23.883Z,96784.97
2022-12-08T16:38:57.093Z,96779.38
2022-12-08T16:41:40.162Z,96787.28
2022-12-08T16:44:10.859Z,96793.22
2022-12-08T16:46:41.418Z,96784.56
2022-12-08T16:49:12.758Z,96782.06
2022-12-08T16:51:45.725Z,96785.75
2022-12-08T16:54:18.906Z,96778.41
2022-12-08T16:56:49.534Z,96776.69
2022-12-08T16:59:20.088Z,96785.69
2022-12-08T17:01:50.776Z,96786.09
2022-12-08T17:04:37.428Z,96782.19
2022-12-08T17:07:08.272Z,96781.91
2022-12-08T17:09:41.477Z,96771.03
2022-12-08T17:12:12.323Z,96768.13
2022-12-08T17:14:42.943Z,96767.13
2022-12-08T17:17:13.776Z,96754.78
2022-12-08T17:19:44.365Z,96748.44
2022-12-08T17:22:15.187Z,96744.19
2022-12-08T17:24:48.347Z,96740.75
2022-12-08T17:27:19.059Z,96745.50
2022-12-08T17:29:49.808Z,96737.03
2022-12-08T17:32:20.539Z,96757.50
2022-12-08T17:34:51.451Z,96760.22
2022-12-08T17:37:22.574Z,96755.78
2022-12-08T17:39:55.984Z,96765.88
2022-12-08T17:42:27.543Z,96766.41
2022-12-08T17:44:58.479Z,96764.78
2022-12-08T17:47:29.314Z,96774.25
2022-12-08T17:50:00.995Z,96773.69
2022-12-08T17:52:32.268Z,96773.16
2022-12-08T17:55:05.401Z,96782.16
2022-12-08T17:57:36.371Z,96783.97
2022-12-08T18:00:08.826Z,96780.28
2022-12-08T18:02:42.168Z,96769.63
2022-12-08T18:05:13.156Z,96774.97
2022-12-08T18:07:43.927Z,96786.41
2022-12-08T18:10:17.873Z,96775.28
2022-12-08T18:12:49.109Z,96783.50
2022-12-08T18:15:22.267Z,96776.06
2022-12-08T18:17:53.709Z,96781.63
2022-12-08T18:20:24.764Z,96777.13
2022-12-08T18:22:55.652Z,96782.00
2022-12-08T18:25:28.908Z,96778.22
2022-12-08T18:27:59.599Z,96784.63
2022-12-08T18:30:30.302Z,96776.16
2022-12-08T18:33:01.097Z,96778.63
2022-12-08T18:35:32.118Z,96763.19
2022-12-08T18:38:03.129Z,96763.94
2022-12-08T18:40:37.192Z,96762.75
2022-12-08T18:43:07.874Z,96764.53
2022-12-08T18:45:39.997Z,96763.31
2022-12-08T18:48:12.052Z,96754.25
2022-12-08T18:50:46.173Z,96762.09
2022-12-08T18:53:17.011Z,96758.84
2022-12-08T18:55:51.300Z,96764.53
2022-12-08T18:58:22.477Z,96772.53
2022-12-08T19:00:53.066Z,96765.63
2022-12-08T19:03:23.786Z,96764.91
2022-12-08T19:06:04.160Z,96760.84
2022-12-08T19:08:35.531Z,96761.09
2022-12-08T19:11:09.188Z,96757.13
2022-12-08T19:13:39.820Z,96768.22
2022-12-08T19:16:10.929Z,96762.72
2022-12-08T19:18:41.714Z,96770.50
2022-12-08T19:21:13.130Z,96763.34
2022-12-08T19:23:44.509Z,96760.88
2022-12-08T19:26:17.769Z,96763.66
2022-12-08T19:28:48.400Z,96767.09
2022-12-08T19:31:19.178Z,96769.19
2022-12-08T19:33:49.925Z,96757.16
2022-12-08T19:36:22.871Z,96768.06
2022-12-08T19:39:05.968Z,96768.50
2022-12-08T19:41:51.697Z,96761.97
2022-12-08T19:44:39.877Z,96759.66
2022-12-08T19:47:10.642Z,96761.56
2022-12-08T19:49:41.566Z,96773.09
2022-12-08T19:52:12.173Z,96762.53
2022-12-08T19:54:43.128Z,96763.19
2022-12-08T19:57:16.648Z,96774.66
2022-12-08T19:59:50.489Z,96777.69
2022-12-08T20:02:25.267Z,96773.88
2022-12-08T20:04:56.200Z,96772.09
2022-12-08T20:07:26.789Z,96772.66
2022-12-08T20:09:57.567Z,96775.69
2022-12-08T20:12:30.706Z,96776.47
2022-12-08T20:15:01.270Z,96785.53
2022-12-08T20:17:33.778Z,96797.84
2022-12-08T20:20:09.969Z,96798.97
2022-12-08T20:22:40.802Z,96798.28
2022-12-08T20:25:13.381Z,96805.03
2022-12-08T20:27:46.647Z,96805.69
2022-12-08T20:30:17.700Z,96811.84
2022-12-08T20:32:48.555Z,96813.06
2022-12-08T20:35:20.296Z,96813.94
2022-12-08T20:37:50.990Z,96820.41
2022-12-08T20:40:21.730Z,96818.31
2022-12-08T20:42:55.219Z,96824.31
2022-12-08T20:45:26.000Z,96824.13
2022-12-08T20:47:56.690Z,96820.59
2022-12-08T20:50:27.612Z,96821.75
2022-12-08T20:52:58.400Z,96827.72
2022-12-08T20:55:29.299Z,96829.19
2022-12-08T20:58:02.557Z,96850.13
2022-12-08T21:00:33.377Z,96849.84
2022-12-08T21:03:04.408Z,96861.75
2022-12-08T21:05:36.728Z,96872.50
2022-12-08T21:08:07.964Z,96868.59
2022-12-08T21:10:43.656Z,96875.06
2022-12-08T21:13:17.539Z,96876.78
2022-12-08T21:15:49.009Z,96879.75
2022-12-08T21:18:20.830Z,96882.72
2022-12-08T21:20:52.269Z,96885.44
2022-12-08T21:23:23.018Z,96884.81
2022-12-08T21:25:53.667Z,96881.63
2022-12-08T21:28:27.020Z,96883.91
2022-12-08T21:30:57.917Z,96882.16
2022-12-08T21:33:28.804Z,96890.41
2022-12-08T21:36:08.202Z,96892.88
2022-12-08T21:38:39.442Z,96880.09
2022-12-08T21:41:12.518Z,96889.88
2022-12-08T21:43:46.288Z,96889.41
2022-12-08T21:46:21.658Z,96896.81
2022-12-08T21:48:52.464Z,96888.47
2022-12-08T21:51:23.980Z,96885.78
2022-12-08T21:53:54.724Z,96891.75
2022-12-08T21:56:25.790Z,96880.53
2022-12-08T21:58:59.946Z,96881.75
2022-12-08T22:01:30.560Z,96882.03
2022-12-08T22:04:02.080Z,96888.19
2022-12-08T22:06:33.331Z,96889.88
2022-12-08T22:09:04.187Z,96887.00
2022-12-08T22:11:35.051Z,96890.06
2022-12-08T22:14:12.597Z,96886.16
2022-12-08T22:16:45.934Z,96885.91
2022-12-08T22:19:16.741Z,96884.94
2022-12-08T22:21:47.718Z,96878.41
2022-12-08T22:24:18.315Z,96877.84
2022-12-08T22:26:49.118Z,96870.63
2022-12-08T22:29:22.260Z,96843.53
2022-12-08T22:31:52.909Z,96855.75
2022-12-08T22:34:23.445Z,96838.78
2022-12-08T22:36:54.297Z,96827.50
2022-12-08T22:39:25.101Z,96823.72
2022-12-08T22:41:55.847Z,96817.69
2022-12-08T22:44:29.010Z,96815.75
2022-12-08T22:47:00.036Z,96821.84
2022-12-08T22:49:31.718Z,96811.59
2022-12-08T22:52:02.477Z,96805.56
2022-12-08T22:54:33.084Z,96804.59
2022-12-08T22:57:04.009Z,96790.59
2022-12-08T22:59:37.807Z,96801.47
2022-12-08T23:02:08.384Z,96791.63
2022-12-08T23:04:39.883Z,96796.44
2022-12-08T23:07:10.642Z,96795.22
2022-12-08T23:09:41.309Z,96792.75
2022-12-08T23:12:12.198Z,96794.69
2022-12-08T23:14:45.474Z,96808.06
2022-12-08T23:17:16.336Z,96808.81
2022-12-08T23:19:48.132Z,96805.94
2022-12-08T23:22:19.595Z,96801.31
2022-12-08T23:24:51.136Z,96785.75
2022-12-08T23:27:22.890Z,96786.72
2022-12-08T23:29:56.824Z,96789.91
2022-12-08T23:32:27.818Z,96796.06
2022-12-08T23:34:59.006Z,96799.31
2022-12-08T23:37:31.473Z,96798.25
2022-12-08T23:40:02.121Z,96796.59
2022-12-08T23:42:33.466Z,96800.28
2022-12-08T23:45:08.941Z,96801.91
2022-12-08T23:47:39.665Z,96802.16
2022-12-08T23:50:12.249Z,96807.72
2022-12-08T23:52:43.071Z,96803.66
2022-12-08T23:55:14.125Z,96803.16
2022-12-08T23:57:44.789Z,96808.47
